sensor_id;sensor_type;location;lat;lon;timestamp;P1;durP1;ratioP1;P2;durP2;ratioP2
13085;SDS011;6609;49.882;8.664;2023-08-20T00:00:54;8.57;;;6.07;;
13085;SDS011;6609;49.882;8.664;2023-08-20T00:03:21;12.93;;;6.03;;
13085;SDS011;6609;49.882;8.664;2023-08-20T00:05:49;10.80;;;6.30;;
13085;SDS011;6609;49.882;8.664;2023-08-20T00:08:16;9.90;;;6.87;;
13085;SDS011;6609;49.882;8.664;2023-08-20T00:10:43;8.80;;;6.37;;
13085;SDS011;6609;49.882;8.664;2023-08-20T00:13:09;12.20;;;6.40;;
13085;SDS011;6609;49.882;8.664;2023-08-20T00:15:38;9.07;;;6.00;;
13085;SDS011;6609;49.882;8.664;2023-08-20T00:18:05;9.03;;;5.43;;
13085;SDS011;6609;49.882;8.664;2023-08-20T00:20:33;10.43;;;6.23;;
13085;SDS011;6609;49.882;8.664;2023-08-20T00:23:00;8.97;;;6.03;;
13085;SDS011;6609;49.882;8.664;2023-08-20T00:25:28;12.03;;;6.10;;
13085;SDS011;6609;49.882;8.664;2023-08-20T00:27:55;13.97;;;6.20;;
13085;SDS011;6609;49.882;8.664;2023-08-20T00:30:21;11.73;;;6.27;;
13085;SDS011;6609;49.882;8.664;2023-08-20T00:32:50;8.07;;;6.40;;
13085;SDS011;6609;49.882;8.664;2023-08-20T00:35:17;7.37;;;5.50;;
13085;SDS011;6609;49.882;8.664;2023-08-20T00:37:44;14.60;;;6.30;;
13085;SDS011;6609;49.882;8.664;2023-08-20T00:40:11;8.93;;;5.70;;
13085;SDS011;6609;49.882;8.664;2023-08-20T00:42:39;12.00;;;6.07;;
13085;SDS011;6609;49.882;8.664;2023-08-20T00:45:06;11.20;;;5.87;;
13085;SDS011;6609;49.882;8.664;2023-08-20T00:47:33;12.40;;;6.57;;
13085;SDS011;6609;49.882;8.664;2023-08-20T00:50:02;9.13;;;7.03;;
13085;SDS011;6609;49.882;8.664;2023-08-20T00:52:31;8.43;;;6.07;;
13085;SDS011;6609;49.882;8.664;2023-08-20T00:54:58;9.83;;;5.67;;
13085;SDS011;6609;49.882;8.664;2023-08-20T00:57:26;12.47;;;5.73;;
13085;SDS011;6609;49.882;8.664;2023-08-20T00:59:53;9.57;;;5.77;;
13085;SDS011;6609;49.882;8.664;2023-08-20T01:02:22;6.87;;;5.27;;
13085;SDS011;6609;49.882;8.664;2023-08-20T01:04:49;9.90;;;6.20;;
13085;SDS011;6609;49.882;8.664;2023-08-20T01:07:20;10.83;;;5.97;;
13085;SDS011;6609;49.882;8.664;2023-08-20T01:09:55;11.33;;;5.77;;
13085;SDS011;6609;49.882;8.664;2023-08-20T01:12:28;10.57;;;6.30;;
13085;SDS011;6609;49.882;8.664;2023-08-20T01:14:55;11.30;;;6.03;;
13085;SDS011;6609;49.882;8.664;2023-08-20T01:17:22;7.37;;;5.57;;
13085;SDS011;6609;49.882;8.664;2023-08-20T01:19:49;10.17;;;5.97;;
13085;SDS011;6609;49.882;8.664;2023-08-20T01:25:22;10.37;;;5.87;;
13085;SDS011;6609;49.882;8.664;2023-08-20T01:27:52;13.07;;;6.00;;
13085;SDS011;6609;49.882;8.664;2023-08-20T01:30:25;7.47;;;5.93;;
13085;SDS011;6609;49.882;8.664;2023-08-20T01:32:52;12.07;;;6.23;;
13085;SDS011;6609;49.882;8.664;2023-08-20T01:35:20;9.27;;;6.07;;
13085;SDS011;6609;49.882;8.664;2023-08-20T01:37:50;10.83;;;5.90;;
13085;SDS011;6609;49.882;8.664;2023-08-20T01:40:17;7.57;;;5.27;;
13085;SDS011;6609;49.882;8.664;2023-08-20T01:42:44;9.83;;;5.63;;
13085;SDS011;6609;49.882;8.664;2023-08-20T01:45:11;8.07;;;5.20;;
13085;SDS011;6609;49.882;8.664;2023-08-20T01:47:39;10.10;;;5.23;;
13085;SDS011;6609;49.882;8.664;2023-08-20T01:50:06;8.93;;;5.07;;
13085;SDS011;6609;49.882;8.664;2023-08-20T01:52:33;8.40;;;5.20;;
13085;SDS011;6609;49.882;8.664;2023-08-20T01:55:00;8.27;;;5.80;;
13085;SDS011;6609;49.882;8.664;2023-08-20T01:57:27;11.60;;;6.13;;
13085;SDS011;6609;49.882;8.664;2023-08-20T01:59:54;10.20;;;6.17;;
13085;SDS011;6609;49.882;8.664;2023-08-20T02:02:22;10.77;;;5.23;;
13085;SDS011;6609;49.882;8.664;2023-08-20T02:04:50;8.13;;;5.30;;
13085;SDS011;6609;49.882;8.664;2023-08-20T02:07:17;10.90;;;5.27;;
13085;SDS011;6609;49.882;8.664;2023-08-20T02:09:44;8.73;;;5.43;;
13085;SDS011;6609;49.882;8.664;2023-08-20T02:12:11;10.37;;;5.37;;
13085;SDS011;6609;49.882;8.664;2023-08-20T02:14:37;7.67;;;5.60;;
13085;SDS011;6609;49.882;8.664;2023-08-20T02:17:05;11.07;;;5.33;;
13085;SDS011;6609;49.882;8.664;2023-08-20T02:19:32;12.10;;;5.77;;
13085;SDS011;6609;49.882;8.664;2023-08-20T02:22:00;13.03;;;6.27;;
13085;SDS011;6609;49.882;8.664;2023-08-20T02:24:26;9.37;;;5.60;;
13085;SDS011;6609;49.882;8.664;2023-08-20T02:26:53;8.33;;;5.10;;
13085;SDS011;6609;49.882;8.664;2023-08-20T02:29:20;10.53;;;5.60;;
13085;SDS011;6609;49.882;8.664;2023-08-20T02:31:47;10.90;;;6.10;;
13085;SDS011;6609;49.882;8.664;2023-08-20T02:34:14;11.47;;;5.70;;
13085;SDS011;6609;49.882;8.664;2023-08-20T02:36:41;10.93;;;6.17;;
13085;SDS011;6609;49.882;8.664;2023-08-20T02:39:09;14.73;;;5.67;;
13085;SDS011;6609;49.882;8.664;2023-08-20T02:41:36;9.97;;;5.87;;
13085;SDS011;6609;49.882;8.664;2023-08-20T02:44:03;10.43;;;5.13;;
13085;SDS011;6609;49.882;8.664;2023-08-20T02:46:30;19.97;;;6.40;;
13085;SDS011;6609;49.882;8.664;2023-08-20T02:48:57;12.07;;;6.10;;
13085;SDS011;6609;49.882;8.664;2023-08-20T02:51:24;9.40;;;5.53;;
13085;SDS011;6609;49.882;8.664;2023-08-20T02:53:51;11.20;;;5.30;;
13085;SDS011;6609;49.882;8.664;2023-08-20T02:56:19;7.63;;;4.97;;
13085;SDS011;6609;49.882;8.664;2023-08-20T02:58:46;10.03;;;5.37;;
13085;SDS011;6609;49.882;8.664;2023-08-20T03:01:19;9.20;;;5.83;;
13085;SDS011;6609;49.882;8.664;2023-08-20T03:03:46;10.53;;;5.33;;
13085;SDS011;6609;49.882;8.664;2023-08-20T03:06:13;13.23;;;6.13;;
13085;SDS011;6609;49.882;8.664;2023-08-20T03:08:39;7.30;;;5.13;;
13085;SDS011;6609;49.882;8.664;2023-08-20T03:11:06;6.80;;;5.43;;
13085;SDS011;6609;49.882;8.664;2023-08-20T03:13:35;12.10;;;5.83;;
13085;SDS011;6609;49.882;8.664;2023-08-20T03:16:01;6.33;;;4.77;;
13085;SDS011;6609;49.882;8.664;2023-08-20T03:18:28;11.43;;;5.90;;
13085;SDS011;6609;49.882;8.664;2023-08-20T03:20:55;8.97;;;5.70;;
13085;SDS011;6609;49.882;8.664;2023-08-20T03:23:22;14.43;;;6.93;;
13085;SDS011;6609;49.882;8.664;2023-08-20T03:25:49;8.50;;;5.73;;
13085;SDS011;6609;49.882;8.664;2023-08-20T03:28:17;9.60;;;5.43;;
13085;SDS011;6609;49.882;8.664;2023-08-20T03:30:46;8.97;;;5.90;;
13085;SDS011;6609;49.882;8.664;2023-08-20T03:33:12;8.87;;;5.60;;
13085;SDS011;6609;49.882;8.664;2023-08-20T03:35:40;12.60;;;6.10;;
13085;SDS011;6609;49.882;8.664;2023-08-20T03:38:07;7.27;;;5.53;;
13085;SDS011;6609;49.882;8.664;2023-08-20T03:40:34;9.60;;;5.80;;
13085;SDS011;6609;49.882;8.664;2023-08-20T03:43:01;11.33;;;5.60;;
13085;SDS011;6609;49.882;8.664;2023-08-20T03:45:28;9.60;;;6.07;;
13085;SDS011;6609;49.882;8.664;2023-08-20T03:47:57;10.97;;;5.50;;
13085;SDS011;6609;49.882;8.664;2023-08-20T03:50:24;8.77;;;6.10;;
13085;SDS011;6609;49.882;8.664;2023-08-20T03:52:50;9.70;;;6.57;;
13085;SDS011;6609;49.882;8.664;2023-08-20T03:55:17;8.57;;;5.27;;
13085;SDS011;6609;49.882;8.664;2023-08-20T03:57:44;9.77;;;5.83;;
13085;SDS011;6609;49.882;8.664;2023-08-20T04:00:12;13.27;;;5.93;;
13085;SDS011;6609;49.882;8.664;2023-08-20T04:02:39;7.77;;;5.80;;
13085;SDS011;6609;49.882;8.664;2023-08-20T04:05:07;11.67;;;6.10;;
13085;SDS011;6609;49.882;8.664;2023-08-20T04:07:34;9.43;;;6.60;;
13085;SDS011;6609;49.882;8.664;2023-08-20T04:10:02;8.37;;;6.20;;
13085;SDS011;6609;49.882;8.664;2023-08-20T04:12:28;10.97;;;5.77;;
13085;SDS011;6609;49.882;8.664;2023-08-20T04:14:55;9.83;;;5.83;;
13085;SDS011;6609;49.882;8.664;2023-08-20T04:17:22;13.57;;;6.53;;
13085;SDS011;6609;49.882;8.664;2023-08-20T04:19:49;10.27;;;5.97;;
13085;SDS011;6609;49.882;8.664;2023-08-20T04:22:18;10.03;;;5.77;;
13085;SDS011;6609;49.882;8.664;2023-08-20T04:24:45;8.97;;;5.57;;
13085;SDS011;6609;49.882;8.664;2023-08-20T04:27:11;8.57;;;6.07;;
13085;SDS011;6609;49.882;8.664;2023-08-20T04:29:38;10.93;;;6.70;;
13085;SDS011;6609;49.882;8.664;2023-08-20T04:32:05;7.53;;;5.60;;
13085;SDS011;6609;49.882;8.664;2023-08-20T04:34:32;11.60;;;6.50;;
13085;SDS011;6609;49.882;8.664;2023-08-20T04:36:59;9.13;;;6.30;;
13085;SDS011;6609;49.882;8.664;2023-08-20T04:39:27;9.67;;;6.07;;
13085;SDS011;6609;49.882;8.664;2023-08-20T04:41:53;11.30;;;6.03;;
13085;SDS011;6609;49.882;8.664;2023-08-20T04:44:22;8.33;;;6.10;;
13085;SDS011;6609;49.882;8.664;2023-08-20T04:46:49;11.17;;;5.90;;
13085;SDS011;6609;49.882;8.664;2023-08-20T04:49:16;11.10;;;6.07;;
13085;SDS011;6609;49.882;8.664;2023-08-20T04:51:43;10.10;;;6.43;;
13085;SDS011;6609;49.882;8.664;2023-08-20T04:54:10;12.57;;;6.40;;
13085;SDS011;6609;49.882;8.664;2023-08-20T04:56:38;8.93;;;6.03;;
13085;SDS011;6609;49.882;8.664;2023-08-20T04:59:05;11.63;;;6.53;;
13085;SDS011;6609;49.882;8.664;2023-08-20T05:01:32;10.13;;;5.80;;
13085;SDS011;6609;49.882;8.664;2023-08-20T05:03:59;7.17;;;6.43;;
13085;SDS011;6609;49.882;8.664;2023-08-20T05:06:26;12.20;;;6.70;;
13085;SDS011;6609;49.882;8.664;2023-08-20T05:08:52;12.80;;;7.07;;
13085;SDS011;6609;49.882;8.664;2023-08-20T05:11:19;13.23;;;7.40;;
13085;SDS011;6609;49.882;8.664;2023-08-20T05:13:49;11.00;;;6.80;;
13085;SDS011;6609;49.882;8.664;2023-08-20T05:16:16;10.60;;;7.53;;
13085;SDS011;6609;49.882;8.664;2023-08-20T05:18:43;12.27;;;7.70;;
13085;SDS011;6609;49.882;8.664;2023-08-20T05:21:09;9.60;;;6.83;;
13085;SDS011;6609;49.882;8.664;2023-08-20T05:23:38;12.27;;;7.60;;
13085;SDS011;6609;49.882;8.664;2023-08-20T05:26:05;10.33;;;6.57;;
13085;SDS011;6609;49.882;8.664;2023-08-20T05:28:32;12.57;;;7.10;;
13085;SDS011;6609;49.882;8.664;2023-08-20T05:31:00;11.77;;;7.00;;
13085;SDS011;6609;49.882;8.664;2023-08-20T05:33:27;11.67;;;7.13;;
13085;SDS011;6609;49.882;8.664;2023-08-20T05:35:54;10.27;;;6.97;;
13085;SDS011;6609;49.882;8.664;2023-08-20T05:38:21;10.73;;;7.03;;
13085;SDS011;6609;49.882;8.664;2023-08-20T05:40:48;12.53;;;7.80;;
13085;SDS011;6609;49.882;8.664;2023-08-20T05:43:15;9.20;;;7.50;;
13085;SDS011;6609;49.882;8.664;2023-08-20T05:45:42;13.17;;;7.03;;
13085;SDS011;6609;49.882;8.664;2023-08-20T05:48:10;8.87;;;6.73;;
13085;SDS011;6609;49.882;8.664;2023-08-20T05:50:36;10.00;;;6.63;;
13085;SDS011;6609;49.882;8.664;2023-08-20T05:53:03;10.70;;;7.13;;
13085;SDS011;6609;49.882;8.664;2023-08-20T05:55:30;11.80;;;6.83;;
13085;SDS011;6609;49.882;8.664;2023-08-20T05:57:57;13.13;;;7.10;;
13085;SDS011;6609;49.882;8.664;2023-08-20T06:00:24;13.40;;;7.33;;
13085;SDS011;6609;49.882;8.664;2023-08-20T06:02:51;11.63;;;7.67;;
13085;SDS011;6609;49.882;8.664;2023-08-20T06:05:19;10.97;;;7.60;;
13085;SDS011;6609;49.882;8.664;2023-08-20T06:07:46;10.47;;;7.67;;
13085;SDS011;6609;49.882;8.664;2023-08-20T06:10:12;11.93;;;8.43;;
13085;SDS011;6609;49.882;8.664;2023-08-20T06:12:39;13.37;;;8.00;;
13085;SDS011;6609;49.882;8.664;2023-08-20T06:15:07;13.63;;;7.90;;
13085;SDS011;6609;49.882;8.664;2023-08-20T06:17:34;9.17;;;7.40;;
13085;SDS011;6609;49.882;8.664;2023-08-20T06:20:01;8.97;;;7.63;;
13085;SDS011;6609;49.882;8.664;2023-08-20T06:22:31;10.73;;;7.40;;
13085;SDS011;6609;49.882;8.664;2023-08-20T06:24:58;11.63;;;8.13;;
13085;SDS011;6609;49.882;8.664;2023-08-20T06:27:25;9.97;;;6.97;;
13085;SDS011;6609;49.882;8.664;2023-08-20T06:29:52;8.97;;;7.10;;
13085;SDS011;6609;49.882;8.664;2023-08-20T06:32:19;9.70;;;7.53;;
13085;SDS011;6609;49.882;8.664;2023-08-20T06:34:46;10.40;;;6.70;;
13085;SDS011;6609;49.882;8.664;2023-08-20T06:37:13;8.20;;;6.83;;
13085;SDS011;6609;49.882;8.664;2023-08-20T06:39:41;8.40;;;7.00;;
13085;SDS011;6609;49.882;8.664;2023-08-20T06:42:08;10.57;;;7.60;;
13085;SDS011;6609;49.882;8.664;2023-08-20T06:44:35;9.80;;;6.33;;
13085;SDS011;6609;49.882;8.664;2023-08-20T06:47:03;12.33;;;6.97;;
13085;SDS011;6609;49.882;8.664;2023-08-20T06:49:30;17.23;;;7.30;;
13085;SDS011;6609;49.882;8.664;2023-08-20T06:51:57;8.57;;;6.93;;
13085;SDS011;6609;49.882;8.664;2023-08-20T06:54:24;8.80;;;6.57;;
13085;SDS011;6609;49.882;8.664;2023-08-20T06:56:52;10.53;;;6.87;;
13085;SDS011;6609;49.882;8.664;2023-08-20T06:59:18;7.43;;;6.17;;
13085;SDS011;6609;49.882;8.664;2023-08-20T07:01:45;9.73;;;7.10;;
13085;SDS011;6609;49.882;8.664;2023-08-20T07:04:12;7.57;;;6.30;;
13085;SDS011;6609;49.882;8.664;2023-08-20T07:06:39;7.53;;;6.63;;
13085;SDS011;6609;49.882;8.664;2023-08-20T07:09:06;10.80;;;6.50;;
13085;SDS011;6609;49.882;8.664;2023-08-20T07:11:35;7.83;;;6.50;;
13085;SDS011;6609;49.882;8.664;2023-08-20T07:14:03;9.03;;;6.10;;
13085;SDS011;6609;49.882;8.664;2023-08-20T07:16:30;7.13;;;6.27;;
13085;SDS011;6609;49.882;8.664;2023-08-20T07:18:57;7.70;;;6.50;;
13085;SDS011;6609;49.882;8.664;2023-08-20T07:21:24;11.10;;;6.63;;
13085;SDS011;6609;49.882;8.664;2023-08-20T07:23:51;11.33;;;6.43;;
13085;SDS011;6609;49.882;8.664;2023-08-20T07:26:18;9.13;;;5.93;;
13085;SDS011;6609;49.882;8.664;2023-08-20T07:28:45;9.50;;;5.73;;
13085;SDS011;6609;49.882;8.664;2023-08-20T07:31:26;7.07;;;6.27;;
13085;SDS011;6609;49.882;8.664;2023-08-20T07:33:53;6.77;;;5.87;;
13085;SDS011;6609;49.882;8.664;2023-08-20T07:36:21;8.23;;;5.97;;
13085;SDS011;6609;49.882;8.664;2023-08-20T07:38:48;9.93;;;5.77;;
13085;SDS011;6609;49.882;8.664;2023-08-20T07:41:15;9.73;;;6.03;;
13085;SDS011;6609;49.882;8.664;2023-08-20T07:43:42;7.60;;;5.93;;
13085;SDS011;6609;49.882;8.664;2023-08-20T07:46:09;8.20;;;5.67;;
13085;SDS011;6609;49.882;8.664;2023-08-20T07:48:38;8.27;;;5.73;;
13085;SDS011;6609;49.882;8.664;2023-08-20T07:51:05;8.57;;;5.67;;
13085;SDS011;6609;49.882;8.664;2023-08-20T07:53:32;8.37;;;6.33;;
13085;SDS011;6609;49.882;8.664;2023-08-20T07:55:59;11.23;;;5.77;;
13085;SDS011;6609;49.882;8.664;2023-08-20T07:58:27;10.67;;;6.43;;
13085;SDS011;6609;49.882;8.664;2023-08-20T08:00:54;10.07;;;6.27;;
13085;SDS011;6609;49.882;8.664;2023-08-20T08:03:21;9.27;;;6.00;;
13085;SDS011;6609;49.882;8.664;2023-08-20T08:05:49;9.33;;;6.00;;
13085;SDS011;6609;49.882;8.664;2023-08-20T08:08:16;10.50;;;6.10;;
13085;SDS011;6609;49.882;8.664;2023-08-20T08:10:43;8.90;;;6.17;;
13085;SDS011;6609;49.882;8.664;2023-08-20T08:13:11;9.53;;;6.17;;
13085;SDS011;6609;49.882;8.664;2023-08-20T08:15:38;9.23;;;6.37;;
13085;SDS011;6609;49.882;8.664;2023-08-20T08:18:06;8.90;;;5.73;;
13085;SDS011;6609;49.882;8.664;2023-08-20T08:20:33;6.47;;;5.87;;
13085;SDS011;6609;49.882;8.664;2023-08-20T08:23:01;9.67;;;5.87;;
13085;SDS011;6609;49.882;8.664;2023-08-20T08:25:28;9.47;;;6.13;;
13085;SDS011;6609;49.882;8.664;2023-08-20T08:27:55;11.50;;;6.60;;
13085;SDS011;6609;49.882;8.664;2023-08-20T08:30:22;8.23;;;5.80;;
13085;SDS011;6609;49.882;8.664;2023-08-20T08:32:49;8.97;;;6.70;;
13085;SDS011;6609;49.882;8.664;2023-08-20T08:35:16;9.13;;;6.83;;
13085;SDS011;6609;49.882;8.664;2023-08-20T08:37:51;17.10;;;7.37;;
13085;SDS011;6609;49.882;8.664;2023-08-20T08:40:17;8.67;;;5.83;;
13085;SDS011;6609;49.882;8.664;2023-08-20T08:42:45;8.50;;;5.53;;
13085;SDS011;6609;49.882;8.664;2023-08-20T08:45:15;8.97;;;6.07;;
13085;SDS011;6609;49.882;8.664;2023-08-20T08:47:43;8.13;;;5.90;;
13085;SDS011;6609;49.882;8.664;2023-08-20T08:50:10;9.67;;;6.87;;
13085;SDS011;6609;49.882;8.664;2023-08-20T08:52:37;9.27;;;6.07;;
13085;SDS011;6609;49.882;8.664;2023-08-20T08:55:07;9.27;;;6.33;;
13085;SDS011;6609;49.882;8.664;2023-08-20T08:57:34;9.27;;;6.23;;
13085;SDS011;6609;49.882;8.664;2023-08-20T09:00:01;12.00;;;7.03;;
13085;SDS011;6609;49.882;8.664;2023-08-20T09:02:29;9.83;;;6.40;;
13085;SDS011;6609;49.882;8.664;2023-08-20T09:04:56;11.67;;;6.47;;
13085;SDS011;6609;49.882;8.664;2023-08-20T09:07:23;10.73;;;6.27;;
13085;SDS011;6609;49.882;8.664;2023-08-20T09:09:50;7.87;;;6.07;;
13085;SDS011;6609;49.882;8.664;2023-08-20T09:12:19;10.27;;;6.80;;
13085;SDS011;6609;49.882;8.664;2023-08-20T09:14:46;10.87;;;6.60;;
13085;SDS011;6609;49.882;8.664;2023-08-20T09:17:14;10.20;;;6.27;;
13085;SDS011;6609;49.882;8.664;2023-08-20T09:19:42;11.13;;;5.83;;
13085;SDS011;6609;49.882;8.664;2023-08-20T09:22:10;10.30;;;5.93;;
13085;SDS011;6609;49.882;8.664;2023-08-20T09:24:39;8.83;;;6.50;;
13085;SDS011;6609;49.882;8.664;2023-08-20T09:27:07;10.47;;;6.77;;
13085;SDS011;6609;49.882;8.664;2023-08-20T09:29:43;9.30;;;5.93;;
13085;SDS011;6609;49.882;8.664;2023-08-20T09:32:13;9.33;;;5.93;;
13085;SDS011;6609;49.882;8.664;2023-08-20T09:34:40;7.23;;;5.53;;
13085;SDS011;6609;49.882;8.664;2023-08-20T09:37:07;9.27;;;6.30;;
13085;SDS011;6609;49.882;8.664;2023-08-20T09:39:35;9.43;;;5.93;;
13085;SDS011;6609;49.882;8.664;2023-08-20T09:42:02;11.30;;;5.93;;
13085;SDS011;6609;49.882;8.664;2023-08-20T09:44:32;10.37;;;5.40;;
13085;SDS011;6609;49.882;8.664;2023-08-20T09:47:02;10.00;;;5.97;;
13085;SDS011;6609;49.882;8.664;2023-08-20T09:49:30;9.17;;;6.27;;
13085;SDS011;6609;49.882;8.664;2023-08-20T09:52:02;10.23;;;6.13;;
13085;SDS011;6609;49.882;8.664;2023-08-20T09:54:33;14.97;;;6.40;;
13085;SDS011;6609;49.882;8.664;2023-08-20T09:57:07;10.07;;;5.90;;
13085;SDS011;6609;49.882;8.664;2023-08-20T09:59:34;8.50;;;5.73;;
13085;SDS011;6609;49.882;8.664;2023-08-20T10:02:03;11.03;;;5.53;;
13085;SDS011;6609;49.882;8.664;2023-08-20T10:04:30;8.77;;;5.73;;
13085;SDS011;6609;49.882;8.664;2023-08-20T10:06:58;10.70;;;6.10;;
13085;SDS011;6609;49.882;8.664;2023-08-20T10:09:25;12.23;;;6.30;;
13085;SDS011;6609;49.882;8.664;2023-08-20T10:11:52;10.57;;;6.40;;
13085;SDS011;6609;49.882;8.664;2023-08-20T10:14:19;9.53;;;5.30;;
13085;SDS011;6609;49.882;8.664;2023-08-20T10:16:46;6.67;;;4.87;;
13085;SDS011;6609;49.882;8.664;2023-08-20T10:19:15;8.73;;;5.60;;
13085;SDS011;6609;49.882;8.664;2023-08-20T10:21:43;8.70;;;5.77;;
13085;SDS011;6609;49.882;8.664;2023-08-20T10:24:15;7.00;;;5.00;;
13085;SDS011;6609;49.882;8.664;2023-08-20T10:26:45;11.60;;;5.60;;
13085;SDS011;6609;49.882;8.664;2023-08-20T10:32:01;11.77;;;5.60;;
13085;SDS011;6609;49.882;8.664;2023-08-20T10:34:33;8.70;;;5.17;;
13085;SDS011;6609;49.882;8.664;2023-08-20T10:37:01;11.57;;;5.07;;
13085;SDS011;6609;49.882;8.664;2023-08-20T10:39:28;8.13;;;5.40;;
13085;SDS011;6609;49.882;8.664;2023-08-20T10:42:07;10.60;;;5.20;;
13085;SDS011;6609;49.882;8.664;2023-08-20T10:47:17;7.43;;;4.83;;
13085;SDS011;6609;49.882;8.664;2023-08-20T10:49:45;12.70;;;5.90;;
13085;SDS011;6609;49.882;8.664;2023-08-20T10:52:17;8.80;;;4.63;;
13085;SDS011;6609;49.882;8.664;2023-08-20T10:54:45;9.03;;;4.47;;
13085;SDS011;6609;49.882;8.664;2023-08-20T10:57:15;6.97;;;4.40;;
13085;SDS011;6609;49.882;8.664;2023-08-20T10:59:42;7.63;;;4.70;;
13085;SDS011;6609;49.882;8.664;2023-08-20T11:02:11;6.63;;;4.77;;
13085;SDS011;6609;49.882;8.664;2023-08-20T11:04:41;6.63;;;4.63;;
13085;SDS011;6609;49.882;8.664;2023-08-20T11:07:10;10.23;;;5.43;;
13085;SDS011;6609;49.882;8.664;2023-08-20T11:09:37;11.53;;;5.37;;
13085;SDS011;6609;49.882;8.664;2023-08-20T11:12:05;10.10;;;5.90;;
13085;SDS011;6609;49.882;8.664;2023-08-20T11:14:33;7.57;;;4.83;;
13085;SDS011;6609;49.882;8.664;2023-08-20T11:17:01;11.13;;;5.37;;
13085;SDS011;6609;49.882;8.664;2023-08-20T11:19:28;8.57;;;4.73;;
13085;SDS011;6609;49.882;8.664;2023-08-20T11:21:55;11.87;;;5.13;;
13085;SDS011;6609;49.882;8.664;2023-08-20T11:24:23;10.33;;;4.90;;
13085;SDS011;6609;49.882;8.664;2023-08-20T11:26:54;11.37;;;5.10;;
13085;SDS011;6609;49.882;8.664;2023-08-20T11:29:21;9.47;;;4.53;;
13085;SDS011;6609;49.882;8.664;2023-08-20T11:31:48;5.57;;;4.50;;
13085;SDS011;6609;49.882;8.664;2023-08-20T11:34:15;7.50;;;4.80;;
13085;SDS011;6609;49.882;8.664;2023-08-20T11:36:43;7.93;;;4.60;;
13085;SDS011;6609;49.882;8.664;2023-08-20T11:39:10;7.40;;;4.57;;
13085;SDS011;6609;49.882;8.664;2023-08-20T11:41:39;6.73;;;4.20;;
13085;SDS011;6609;49.882;8.664;2023-08-20T11:44:08;6.40;;;4.27;;
13085;SDS011;6609;49.882;8.664;2023-08-20T11:46:41;9.07;;;4.53;;
13085;SDS011;6609;49.882;8.664;2023-08-20T11:49:09;8.57;;;4.30;;
13085;SDS011;6609;49.882;8.664;2023-08-20T11:51:37;8.80;;;4.43;;
13085;SDS011;6609;49.882;8.664;2023-08-20T11:54:04;8.77;;;4.43;;
13085;SDS011;6609;49.882;8.664;2023-08-20T11:56:32;9.67;;;4.70;;
13085;SDS011;6609;49.882;8.664;2023-08-20T11:59:01;6.47;;;4.13;;
13085;SDS011;6609;49.882;8.664;2023-08-20T12:01:29;5.20;;;4.07;;
13085;SDS011;6609;49.882;8.664;2023-08-20T12:03:59;7.83;;;4.27;;
13085;SDS011;6609;49.882;8.664;2023-08-20T12:06:26;7.30;;;4.00;;
13085;SDS011;6609;49.882;8.664;2023-08-20T12:08:56;9.53;;;5.10;;
13085;SDS011;6609;49.882;8.664;2023-08-20T12:11:23;8.50;;;4.60;;
13085;SDS011;6609;49.882;8.664;2023-08-20T12:13:51;7.33;;;4.40;;
13085;SDS011;6609;49.882;8.664;2023-08-20T12:16:21;5.93;;;3.70;;
13085;SDS011;6609;49.882;8.664;2023-08-20T12:18:48;10.40;;;4.30;;
13085;SDS011;6609;49.882;8.664;2023-08-20T12:21:15;7.40;;;4.13;;
13085;SDS011;6609;49.882;8.664;2023-08-20T12:23:42;7.37;;;4.63;;
13085;SDS011;6609;49.882;8.664;2023-08-20T12:26:09;8.53;;;4.20;;
13085;SDS011;6609;49.882;8.664;2023-08-20T12:28:36;8.13;;;5.03;;
13085;SDS011;6609;49.882;8.664;2023-08-20T12:31:04;9.17;;;4.70;;
13085;SDS011;6609;49.882;8.664;2023-08-20T12:33:32;6.40;;;4.37;;
13085;SDS011;6609;49.882;8.664;2023-08-20T12:35:59;6.90;;;4.43;;
13085;SDS011;6609;49.882;8.664;2023-08-20T12:38:26;7.43;;;4.63;;
13085;SDS011;6609;49.882;8.664;2023-08-20T12:40:58;6.47;;;4.50;;
13085;SDS011;6609;49.882;8.664;2023-08-20T12:43:26;8.53;;;4.20;;
13085;SDS011;6609;49.882;8.664;2023-08-20T12:45:53;6.77;;;4.40;;
13085;SDS011;6609;49.882;8.664;2023-08-20T12:48:19;6.03;;;3.83;;
13085;SDS011;6609;49.882;8.664;2023-08-20T12:50:48;5.73;;;3.70;;
13085;SDS011;6609;49.882;8.664;2023-08-20T12:53:14;7.70;;;3.40;;
13085;SDS011;6609;49.882;8.664;2023-08-20T12:55:41;9.40;;;4.13;;
13085;SDS011;6609;49.882;8.664;2023-08-20T12:58:08;6.63;;;3.77;;
13085;SDS011;6609;49.882;8.664;2023-08-20T13:00:35;5.93;;;3.40;;
13085;SDS011;6609;49.882;8.664;2023-08-20T13:03:02;6.70;;;3.83;;
13085;SDS011;6609;49.882;8.664;2023-08-20T13:05:30;7.43;;;3.60;;
13085;SDS011;6609;49.882;8.664;2023-08-20T13:07:58;6.57;;;4.30;;
13085;SDS011;6609;49.882;8.664;2023-08-20T13:10:26;6.23;;;4.20;;
13085;SDS011;6609;49.882;8.664;2023-08-20T13:12:54;7.87;;;3.83;;
13085;SDS011;6609;49.882;8.664;2023-08-20T13:15:25;4.00;;;3.40;;
13085;SDS011;6609;49.882;8.664;2023-08-20T13:17:53;7.60;;;3.63;;
13085;SDS011;6609;49.882;8.664;2023-08-20T13:20:20;6.27;;;3.13;;
13085;SDS011;6609;49.882;8.664;2023-08-20T13:22:48;7.33;;;3.47;;
13085;SDS011;6609;49.882;8.664;2023-08-20T13:25:16;7.93;;;3.40;;
13085;SDS011;6609;49.882;8.664;2023-08-20T13:27:46;5.20;;;3.30;;
13085;SDS011;6609;49.882;8.664;2023-08-20T13:30:13;6.47;;;3.60;;
13085;SDS011;6609;49.882;8.664;2023-08-20T13:32:39;6.87;;;3.97;;
13085;SDS011;6609;49.882;8.664;2023-08-20T13:35:07;4.57;;;3.50;;
13085;SDS011;6609;49.882;8.664;2023-08-20T13:37:33;9.47;;;3.80;;
13085;SDS011;6609;49.882;8.664;2023-08-20T13:40:01;5.37;;;2.97;;
13085;SDS011;6609;49.882;8.664;2023-08-20T13:42:31;4.53;;;3.73;;
13085;SDS011;6609;49.882;8.664;2023-08-20T13:44:57;6.20;;;3.97;;
13085;SDS011;6609;49.882;8.664;2023-08-20T13:47:24;5.97;;;4.00;;
13085;SDS011;6609;49.882;8.664;2023-08-20T13:49:51;6.60;;;4.13;;
13085;SDS011;6609;49.882;8.664;2023-08-20T13:52:18;8.23;;;4.03;;
13085;SDS011;6609;49.882;8.664;2023-08-20T13:54:45;5.93;;;3.73;;
13085;SDS011;6609;49.882;8.664;2023-08-20T13:57:12;7.23;;;3.90;;
13085;SDS011;6609;49.882;8.664;2023-08-20T13:59:41;4.70;;;3.83;;
13085;SDS011;6609;49.882;8.664;2023-08-20T14:02:07;5.60;;;3.57;;
13085;SDS011;6609;49.882;8.664;2023-08-20T14:04:35;7.23;;;3.60;;
13085;SDS011;6609;49.882;8.664;2023-08-20T14:07:01;8.00;;;3.60;;
13085;SDS011;6609;49.882;8.664;2023-08-20T14:09:28;4.53;;;3.03;;
13085;SDS011;6609;49.882;8.664;2023-08-20T14:11:55;5.27;;;3.33;;
13085;SDS011;6609;49.882;8.664;2023-08-20T14:14:22;5.13;;;2.90;;
13085;SDS011;6609;49.882;8.664;2023-08-20T14:16:50;5.83;;;3.53;;
13085;SDS011;6609;49.882;8.664;2023-08-20T14:19:17;4.23;;;3.17;;
13085;SDS011;6609;49.882;8.664;2023-08-20T14:21:44;7.63;;;3.73;;
13085;SDS011;6609;49.882;8.664;2023-08-20T14:24:11;7.87;;;4.23;;
13085;SDS011;6609;49.882;8.664;2023-08-20T14:26:38;7.17;;;4.40;;
13085;SDS011;6609;49.882;8.664;2023-08-20T14:29:05;5.10;;;3.47;;
13085;SDS011;6609;49.882;8.664;2023-08-20T14:31:32;6.03;;;3.40;;
13085;SDS011;6609;49.882;8.664;2023-08-20T14:34:00;5.73;;;4.23;;
13085;SDS011;6609;49.882;8.664;2023-08-20T14:36:27;7.87;;;4.13;;
13085;SDS011;6609;49.882;8.664;2023-08-20T14:38:54;9.43;;;4.60;;
13085;SDS011;6609;49.882;8.664;2023-08-20T14:41:21;9.23;;;4.93;;
13085;SDS011;6609;49.882;8.664;2023-08-20T14:43:48;10.77;;;4.73;;
13085;SDS011;6609;49.882;8.664;2023-08-20T14:46:15;8.70;;;4.33;;
13085;SDS011;6609;49.882;8.664;2023-08-20T14:48:42;7.20;;;4.70;;
13085;SDS011;6609;49.882;8.664;2023-08-20T14:51:11;6.80;;;4.17;;
13085;SDS011;6609;49.882;8.664;2023-08-20T14:53:38;9.87;;;4.73;;
13085;SDS011;6609;49.882;8.664;2023-08-20T14:56:05;9.87;;;5.10;;
13085;SDS011;6609;49.882;8.664;2023-08-20T14:58:32;8.10;;;4.60;;
13085;SDS011;6609;49.882;8.664;2023-08-20T15:01:00;10.40;;;4.77;;
13085;SDS011;6609;49.882;8.664;2023-08-20T15:03:28;6.77;;;3.73;;
13085;SDS011;6609;49.882;8.664;2023-08-20T15:05:55;6.47;;;4.20;;